Flight Track Log - Related Links

Times and Time Zones

All times are in EDT time to prevent confusion due to time zone crossing. See the AAY876 flight status page for this flight to view local times or setup timezone preferences in your user account.

Time Position Orientation Groundspeed Altitude Reporting Facility
EDT Latitude Longitude Course Direction KTS MPH feet Rate Location/Type
Sun 03:45:35 PM 27.9000 -82.6833 351° North 154 177 500  Level Tampa TRACON
Sun 03:46:47 PM 27.8500 -82.6833 180° South 187 215 2,100 762 Climbing Tampa TRACON
Sun 03:47:41 PM 27.8333 -82.7333 249° West 222 255 2,100 1,000 Level Tampa TRACON
Sun 03:48:41 PM 27.8500 -82.8000 286° West 222 255 4,000 1,450 Climbing Tampa TRACON
Sun 03:49:41 PM 27.9167 -82.8167 348° North 241 277 5,000 1,476 Climbing Tampa TRACON
Sun 03:50:47 PM 28.0000 -82.8333 350° North 288 331 7,100 2,143 Climbing Tampa TRACON
Sun 03:51:00 PM 28.5547 -82.8238 351° North  Level FlightAware Approximate
Sun 03:51:47 PM 28.0833 -82.8333 360° North 306 352 9,500  Level Tampa TRACON
Sun 03:54:17 PM 28.3189 -82.8572 355° North 351 404 13,600 1,943 Climbing Jacksonville Center
Sun 03:55:17 PM 28.4317 -82.8594 359° North 384 442 16,300 2,200 Climbing Jacksonville Center
Sun 03:56:17 PM 28.5486 -82.8619 359° North 403 464 18,000 1,800 Climbing Jacksonville Center
Sun 03:57:17 PM 28.6611 -82.8878 349° North 408 470 19,900 1,900 Climbing Jacksonville Center
Sun 03:58:17 PM 28.7761 -82.9542 333° Northwest 408 470 21,800 1,800 Climbing Jacksonville Center
Sun 03:59:17 PM 28.8825 -83.0111 335° Northwest 414 476 23,500 1,750 Climbing Jacksonville Center
Sun 04:00:17 PM 28.9950 -83.0683 336° Northwest 420 483 25,300 833 Climbing Jacksonville Center
Sun 04:02:17 PM 29.2183 -83.1639 340° North 426 490 26,000 533 Climbing Jacksonville Center
Sun 04:03:17 PM 29.3142 -83.2092 338° Northwest 426 490 26,900 1,000 Climbing Jacksonville Center
Sun 04:04:17 PM 29.4331 -83.2408 347° North 426 490 28,000 550 Climbing Jacksonville Center
Sun 04:05:17 PM 29.5478 -83.2842 342° North 426 490 28,000 -50 Level Jacksonville Center
Sun 04:06:17 PM 29.6625 -83.3203 345° North 421 484 27,900  Descending Jacksonville Center
Sun 04:07:17 PM 29.7750 -83.3592 343° North 421 484 28,000  Climbing Jacksonville Center
Sun 04:08:17 PM 29.8919 -83.3956 345° North 421 484 27,900 -50 Descending Jacksonville Center
Sun 04:09:17 PM 30.0064 -83.4369 343° North 421 484 27,900 50 Level Jacksonville Center
Sun 04:10:17 PM 30.1211 -83.4736 345° North 421 484 28,000 50 Climbing Jacksonville Center
Sun 04:11:17 PM 30.2336 -83.5153 342° North 421 484 28,000  Level Jacksonville Center
Sun 04:12:17 PM 30.3483 -83.5497 345° North 421 484 28,000  Level Jacksonville Center
Sun 04:13:17 PM 30.4608 -83.5892 343° North 421 484 28,000  Level Jacksonville Center
Sun 04:14:17 PM 30.5858 -83.6308 344° North 421 484 28,000 850 Level Jacksonville Center
Sun 04:15:17 PM 30.6983 -83.6731 342° North 421 484 29,700 1,300 Climbing Jacksonville Center
Sun 04:16:17 PM 30.8131 -83.7103 344° North 421 484 30,600 1,100 Climbing Jacksonville Center
Sun 04:17:17 PM 30.9233 -83.7475 344° North 416 479 31,900 700 Climbing Jacksonville Center
Sun 04:18:17 PM 31.0317 -83.7847 344° North 416 479 32,000 50 Climbing Jacksonville Center
Sun 04:19:17 PM 31.1381 -83.8247 342° North 416 479 32,000  Level Jacksonville Center
Sun 04:20:53 PM 31.3125 -83.8881 343° North 437 503 32,000  Level Atlanta Center
Sun 04:21:53 PM 31.4125 -83.9222 344° North 432 497 32,000  Level Atlanta Center
Sun 04:22:53 PM 31.5253 -83.9608 344° North 420 483 32,000  Level Atlanta Center
Sun 04:23:53 PM 31.6422 -83.9875 349° North 415 478 32,000  Level Atlanta Center
Sun 04:24:53 PM 31.7569 -84.0144 349° North 422 486 32,000  Level Atlanta Center
Sun 04:25:53 PM 31.8761 -84.0389 350° North 427 491 32,000  Level Atlanta Center
Sun 04:26:53 PM 31.9928 -84.0658 349° North 427 491 32,000  Level Atlanta Center
Sun 04:27:53 PM 32.1161 -84.0903 350° North 433 498 32,000  Level Atlanta Center
Sun 04:28:53 PM 32.2328 -84.1200 348° North 438 504 32,000  Level Atlanta Center
Sun 04:29:53 PM 32.3561 -84.1422 351° North 438 504 32,000  Level Atlanta Center
Sun 04:30:53 PM 32.4769 -84.1742 347° North 438 504 32,000  Level Atlanta Center
Sun 04:31:53 PM 32.6003 -84.1992 350° North 438 504 32,000  Level Atlanta Center
Sun 04:32:53 PM 32.7233 -84.2289 349° North 444 511 32,000  Level Atlanta Center
Sun 04:33:53 PM 32.8569 -84.2614 348° North 451 519 32,000  Level Atlanta Center
Sun 04:34:53 PM 32.9758 -84.2914 348° North 439 505 32,000  Level Atlanta Center
Sun 04:36:53 PM 33.2242 -84.3467 349° North 445 512 32,000  Level Atlanta Center
Sun 04:37:53 PM 33.3450 -84.3769 348° North 445 512 32,000  Level Atlanta Center
Sun 04:38:53 PM 33.4681 -84.4000 351° North 450 518 32,000  Level Atlanta Center
Sun 04:39:53 PM 33.5767 -84.4278 348° North 445 512 32,000  Level Atlanta Center
Sun 04:40:53 PM 33.7017 -84.4533 350° North 445 512 32,000 50 Level Atlanta Center
Sun 04:41:53 PM 33.8311 -84.4814 350° North 445 512 32,100 400 Climbing Atlanta Center
Sun 04:42:53 PM 33.9417 -84.5119 347° North 451 519 32,800 600 Climbing Atlanta Center
Sun 04:43:53 PM 34.0769 -84.5453 348° North 460 529 33,300 500 Climbing Atlanta Center
Sun 04:44:53 PM 34.2042 -84.5739 349° North 460 529 33,800 350 Climbing Atlanta Center
Sun 04:45:53 PM 34.3167 -84.6297 338° Northwest 449 517 34,000 100 Climbing Atlanta Center
Sun 04:46:53 PM 34.4103 -84.7186 322° Northwest 428 493 34,000  Level Atlanta Center
Sun 04:47:53 PM 34.5056 -84.8025 324° Northwest 428 493 34,000  Level Atlanta Center
Sun 04:48:53 PM 34.6033 -84.8664 332° Northwest 434 499 34,000  Level Atlanta Center
Sun 04:49:53 PM 34.7261 -84.9233 339° North 434 499 34,000  Level Atlanta Center
Sun 04:50:53 PM 34.8425 -84.9828 337° Northwest 441 507 34,000  Level Atlanta Center
Sun 04:51:53 PM 34.9653 -85.0347 341° North 451 519 34,000  Level Atlanta Center
Sun 04:52:53 PM 35.0817 -85.0894 339° North 451 519 34,000  Level Atlanta Center
Sun 04:54:08 PM 35.2217 -85.1506 340° North 456 525 34,000  Level Memphis Center
Sun 04:55:10 PM 35.3394 -85.2058 339° North 452 520 34,000  Level Memphis Center
Sun 04:56:12 PM 35.4594 -85.2581 340° North 453 521 34,000  Level Memphis Center
Sun 04:57:14 PM 35.5772 -85.3136 339° North 453 521 34,000  Level Memphis Center
Sun 04:58:16 PM 35.6956 -85.3683 339° North 452 520 34,000  Level Memphis Center
Sun 04:59:18 PM 35.8364 -85.4317 340° North 449 517 34,000  Level Memphis Center
Sun 05:00:20 PM 35.9514 -85.4869 339° North 445 512 34,000  Level Memphis Center
Sun 05:01:22 PM 36.0689 -85.5397 340° North 443 510 34,000  Level Memphis Center
Sun 05:02:24 PM 36.1839 -85.5967 338° Northwest 443 510 34,000  Level Memphis Center
Sun 05:03:26 PM 36.3031 -85.6461 342° North 444 511 34,000  Level Memphis Center
Sun 05:04:28 PM 36.4161 -85.7044 337° Northwest 444 511 34,000  Level Memphis Center
Sun 05:05:30 PM 36.5331 -85.7547 341° North 440 506 34,000  Level Memphis Center
Sun 05:06:39 PM 36.6689 -85.8242 338° Northwest 441 507 34,000  Level Indianapolis Center
Sun 05:07:35 PM 36.7792 -85.8708 341° North 444 511 34,000  Level Memphis Center
Sun 05:08:43 PM 36.9092 -85.9392 337° Northwest 437 503 34,000  Level Indianapolis Center
Sun 05:09:39 PM 37.0089 -85.9803 342° North 443 510 34,000  Level Memphis Center
Sun 05:10:41 PM 37.1417 -86.0494 337° Northwest 442 509 34,000  Level Memphis Center
Sun 05:11:43 PM 37.2594 -86.1011 341° North 443 510 34,000  Level Memphis Center
Sun 05:12:51 PM 37.3900 -86.1703 337° Northwest 436 502 34,000  Level Indianapolis Center
Sun 05:13:53 PM 37.5069 -86.2194 342° North 440 506 34,000  Level Indianapolis Center
Sun 05:14:55 PM 37.6183 -86.2789 337° Northwest 433 498 34,000  Level Indianapolis Center
Sun 05:15:57 PM 37.7344 -86.3319 340° North 434 499 34,000  Level Indianapolis Center
Sun 05:17:00 PM 37.8617 -86.3986 338° Northwest 437 503 34,000  Level Indianapolis Center
Sun 05:18:02 PM 37.9783 -86.4511 340° North 439 505 34,000  Level Indianapolis Center
Sun 05:19:04 PM 38.0903 -86.5114 337° Northwest 439 505 34,000  Level Indianapolis Center
Sun 05:20:06 PM 38.2064 -86.5639 340° North 440 506 34,000  Level Indianapolis Center
Sun 05:21:08 PM 38.3158 -86.6239 337° Northwest 438 504 34,000  Level Indianapolis Center
Sun 05:22:10 PM 38.4300 -86.6736 341° North 437 503 34,000  Level Indianapolis Center
Sun 05:23:12 PM 38.5583 -86.7447 337° Northwest 423 487 34,000  Level Indianapolis Center
Sun 05:24:14 PM 38.6711 -86.7969 340° North 430 495 34,000  Level Indianapolis Center
Sun 05:25:16 PM 38.7781 -86.8569 336° Northwest 427 491 34,000  Level Indianapolis Center
Sun 05:26:18 PM 38.8925 -86.9097 340° North 431 496 34,000  Level Indianapolis Center
Sun 05:27:21 PM 39.0033 -86.9700 337° Northwest 432 497 34,000  Level Indianapolis Center
Sun 05:28:23 PM 39.1178 -87.0250 340° North 433 498 34,000  Level Indianapolis Center
Sun 05:29:25 PM 39.2500 -87.0964 337° Northwest 433 498 34,000  Level Indianapolis Center
Sun 05:30:27 PM 39.3647 -87.1500 340° North 433 498 34,000  Level Indianapolis Center
Sun 05:31:29 PM 39.4753 -87.2117 337° Northwest 433 498 34,000  Level Indianapolis Center
Sun 05:32:31 PM 39.5878 -87.2664 339° North 433 498 34,000  Level Indianapolis Center
Sun 05:33:33 PM 39.6972 -87.3261 337° Northwest 432 497 34,000  Level Indianapolis Center
Sun 05:34:35 PM 39.8092 -87.3808 339° North 431 496 34,000  Level Indianapolis Center
Sun 05:35:37 PM 39.9375 -87.4517 337° Northwest 427 491 34,000  Level Indianapolis Center
Sun 05:36:39 PM 40.0464 -87.5078 338° Northwest 422 486 34,000  Level Indianapolis Center
Sun 05:37:42 PM 40.1553 -87.5675 337° Northwest 422 486 34,000  Level Indianapolis Center
Sun 05:38:44 PM 40.2669 -87.6225 339° North 422 486 34,000  Level Indianapolis Center
Sun 05:39:46 PM 40.3697 -87.6892 334° Northwest 421 484 34,000  Level Indianapolis Center
Sun 05:40:48 PM 40.4458 -87.7842 316° Northwest 389 448 34,000 -629 Level Indianapolis Center
Sun 05:41:50 PM 40.5303 -87.8781 320° Northwest 392 451 32,700 -1,548 Descending Indianapolis Center
Sun 05:42:52 PM 40.6286 -87.9842 321° Northwest 386 444 30,800 -1,742 Descending Indianapolis Center
Sun 05:43:54 PM 40.7036 -88.0831 315° West 381 438 29,100 -1,645 Descending Indianapolis Center
Sun 05:44:56 PM 40.7864 -88.1769 319° Northwest 387 445 27,400 -1,308 Descending Indianapolis Center
Sun 05:46:07 PM 40.8761 -88.2869 317° Northwest 381 438 26,200 -947 Descending Chicago Center
Sun 05:47:09 PM 40.9539 -88.3803 318° Northwest 378 435 25,300 -774 Descending Chicago Center
Sun 05:48:11 PM 41.0444 -88.4878 318° Northwest 365 420 24,600 -581 Descending Chicago Center
Sun 05:49:13 PM 41.1169 -88.5800 316° Northwest 363 418 24,100 -672 Descending Chicago Center
Sun 05:50:16 PM 41.1953 -88.6719 319° Northwest 370 426 23,200 -912 Descending Chicago Center
Sun 05:51:18 PM 41.2703 -88.7697 316° Northwest 373 429 22,200 -968 Descending Chicago Center
Sun 05:52:20 PM 41.3514 -88.8650 319° Northwest 382 440 21,200 -581 Descending Chicago Center
Sun 05:53:22 PM 41.4292 -88.9639 316° Northwest 386 444 21,000 -435 Descending Chicago Center
Sun 05:54:24 PM 41.5111 -89.0575 319° Northwest 386 444 20,300 -1,774 Descending Chicago Center
Sun 05:56:28 PM 41.6800 -89.2642 318° Northwest 371 427 15,500 -2,290 Descending Chicago Center
Sun 05:57:30 PM 41.7736 -89.2703 357° North 362 417 13,200 -2,081 Descending Chicago Center
Sun 05:58:32 PM 41.8703 -89.2278 18° North 366 421 11,200 -1,536 Descending Chicago Center
Sun 05:59:35 PM 41.9586 -89.1919 17° North 342 394 10,000 -1,392 Descending Chicago Center
Sun 06:00:37 PM 42.0317 -89.1381 29° Northeast 305 351 8,300 -1,694 Descending Chicago Center
Sun 06:01:39 PM 42.1061 -89.0822 29° Northeast 270 311 6,500 -2,081 Descending Chicago Center
Sun 06:02:41 PM 42.1631 -89.0375 30° Northeast 241 277 4,000 -1,742 Descending Chicago Center
Sun 06:03:43 PM 42.2342 -89.0425 357° North 235 270 2,900 -1,065 Descending Chicago Center

Login

Don't have an account? Register now (free) for customized features, flight alerts, and more!